Time;durP1;ratioP1;P1;durP2;ratioP2;P2;SDS_P1;SDS_P2;PMS_P1;PMS_P2;Temp;Humidity;BMP_temperature;BMP_pressure;BME280_temperature;BME280_humidity;BME280_pressure;Samples;Min_cycle;Max_cycle;Signal;HPM_P1;HPM_P2
2022/07/24 00:00:20;;;;;;;11.27;9.32;;;;;;;28.94;43.40;99569.91;4463209;32;34051;-60
2022/07/24 00:02:47;;;;;;;14.35;8.27;;;;;;;29.12;42.71;99570.91;4455210;32;32783;-61
2022/07/24 00:05:15;;;;;;;10.70;8.68;;;;;;;28.94;43.08;99567.16;4452840;32;34504;-59
2022/07/24 00:07:43;;;;;;;12.27;9.60;;;;;;;28.93;42.96;99564.66;4452906;32;33969;-59
2022/07/24 00:10:11;;;;;;;11.55;9.20;;;;;;;28.93;42.90;99562.72;4452561;32;33915;-61
2022/07/24 00:12:39;;;;;;;11.90;9.55;;;;;;;28.70;43.63;99555.28;4468350;32;33670;-60
2022/07/24 00:15:07;;;;;;;11.43;9.70;;;;;;;28.44;44.70;99573.06;4467268;32;33312;-61
2022/07/24 00:17:35;;;;;;;13.85;10.20;;;;;;;28.05;46.09;99572.53;4467703;32;33759;-59
2022/07/24 00:20:05;;;;;;;13.30;10.00;;;;;;;28.17;46.10;99583.59;4463625;32;34054;-62
2022/07/24 00:22:33;;;;;;;14.50;10.85;;;;;;;28.14;46.34;99584.06;4451969;32;34009;-59
2022/07/24 00:25:01;;;;;;;13.50;10.23;;;;;;;27.51;47.97;99587.16;4452289;32;32465;-60
2022/07/24 00:27:28;;;;;;;13.38;10.55;;;;;;;27.74;47.55;99584.56;4452474;32;34877;-60
2022/07/24 00:29:56;;;;;;;14.45;10.63;;;;;;;27.24;48.88;99590.19;4464216;32;33914;-60
2022/07/24 00:32:23;;;;;;;12.85;10.13;;;;;;;27.64;47.60;99598.03;4451806;32;34608;-61
2022/07/24 00:34:51;;;;;;;11.70;8.90;;;;;;;27.60;47.68;99602.28;4453568;32;33198;-59
2022/07/24 00:37:18;;;;;;;14.25;9.38;;;;;;;27.69;47.40;99603.66;4460491;32;34651;-60
2022/07/24 00:39:47;;;;;;;15.38;9.95;;;;;;;27.39;47.95;99601.66;4451625;32;34039;-59
2022/07/24 00:42:15;;;;;;;11.90;9.98;;;;;;;27.35;47.93;99600.47;4453000;32;33830;-59
2022/07/24 00:44:42;;;;;;;11.50;9.75;;;;;;;27.62;47.37;99598.22;4451986;32;32456;-59
2022/07/24 00:47:10;;;;;;;18.75;10.65;;;;;;;27.41;47.77;99590.44;4462483;32;33695;-59
2022/07/24 00:49:37;;;;;;;13.32;9.00;;;;;;;27.52;47.54;99600.69;4455924;32;34284;-60
2022/07/24 00:52:05;;;;;;;10.55;8.60;;;;;;;27.80;46.87;99593.81;4451364;32;33985;-59
2022/07/24 00:54:33;;;;;;;13.90;9.60;;;;;;;27.97;46.38;99597.63;4453571;32;32228;-59
2022/07/24 00:57:00;;;;;;;13.85;8.45;;;;;;;27.66;47.19;99584.03;4461761;32;32566;-59
2022/07/24 00:59:28;;;;;;;12.37;9.02;;;;;;;27.69;47.17;99594.56;4452135;32;33901;-60
2022/07/24 01:01:56;;;;;;;12.77;10.13;;;;;;;27.87;46.78;99589.09;4457178;32;33649;-59
2022/07/24 01:04:24;;;;;;;11.27;9.13;;;;;;;27.46;47.46;99571.38;4469399;32;32505;-60
2022/07/24 01:06:52;;;;;;;12.85;9.25;;;;;;;27.68;47.06;99566.25;4469724;32;33648;-60
2022/07/24 01:09:20;;;;;;;14.48;8.18;;;;;;;27.99;46.21;99572.63;4457908;32;34202;-60
2022/07/24 01:11:47;;;;;;;11.77;9.23;;;;;;;27.41;47.41;99562.94;4441135;32;34666;-60
2022/07/24 01:14:16;;;;;;;13.48;8.60;;;;;;;27.37;47.37;99568.06;4439820;32;33341;-59
2022/07/24 01:16:44;;;;;;;11.45;8.43;;;;;;;27.34;47.18;99562.19;4452564;32;33553;-60
2022/07/24 01:19:12;;;;;;;10.80;8.18;;;;;;;27.94;45.66;99578.84;4455759;32;34035;-59
2022/07/24 01:21:48;;;;;;;12.82;7.93;;;;;;;27.84;45.43;99571.12;4458531;32;32533;-59
2022/07/24 01:24:16;;;;;;;10.85;8.13;;;;;;;27.63;45.60;99577.06;4466805;32;33486;-60
2022/07/24 01:26:44;;;;;;;9.18;7.43;;;;;;;27.30;46.12;99572.81;4465093;32;33532;-59
2022/07/24 01:29:12;;;;;;;9.90;7.20;;;;;;;27.55;45.19;99567.25;4463518;32;35228;-61
2022/07/24 01:31:39;;;;;;;10.40;7.97;;;;;;;27.04;46.35;99567.56;4468844;32;34211;-60
2022/07/24 01:34:07;;;;;;;10.77;7.93;;;;;;;26.90;46.51;99566.81;4469392;32;33325;-59
2022/07/24 01:36:34;;;;;;;9.90;7.07;;;;;;;27.02;46.17;99564.19;4469241;32;34000;-59
2022/07/24 01:39:02;;;;;;;10.80;7.22;;;;;;;27.08;45.96;99563.28;4460233;32;34055;-59
2022/07/24 01:41:30;;;;;;;11.82;6.60;;;;;;;27.72;44.42;99552.88;4453559;32;33648;-61
2022/07/24 01:43:58;;;;;;;9.25;6.47;;;;;;;26.94;45.93;99544.19;4454412;32;31869;-59
2022/07/24 01:46:26;;;;;;;10.70;7.22;;;;;;;27.40;44.93;99553.88;4453111;32;35120;-60
2022/07/24 01:48:53;;;;;;;8.80;6.78;;;;;;;27.29;45.09;99554.66;4453132;32;35354;-59
2022/07/24 01:51:21;;;;;;;9.60;6.65;;;;;;;27.49;44.60;99557.16;4468167;32;33900;-59
2022/07/24 01:53:48;;;;;;;10.70;6.97;;;;;;;27.86;43.57;99573.63;4467900;32;33387;-60
2022/07/24 01:56:16;;;;;;;10.32;7.25;;;;;;;28.24;42.81;99586.25;4469249;32;33847;-59
2022/07/24 01:58:44;;;;;;;11.02;6.30;;;;;;;28.04;43.20;99579.13;4468958;32;32720;-59
2022/07/24 02:01:12;;;;;;;9.15;6.40;;;;;;;28.18;42.91;99576.16;4469333;32;34789;-60
2022/07/24 02:03:40;;;;;;;8.35;7.05;;;;;;;28.27;42.91;99572.03;4461300;32;33593;-60
2022/07/24 02:06:08;;;;;;;12.02;7.03;;;;;;;28.51;42.72;99576.56;4453713;32;34191;-59
2022/07/24 02:08:35;;;;;;;10.05;7.37;;;;;;;28.64;43.25;99569.16;4453857;32;34158;-59
2022/07/24 02:11:03;;;;;;;11.32;6.90;;;;;;;28.60;43.89;99568.78;4460797;32;32594;-59
2022/07/24 02:13:31;;;;;;;9.43;6.97;;;;;;;28.82;43.90;99569.03;4467681;32;33092;-59
2022/07/24 02:15:59;;;;;;;12.35;6.72;;;;;;;28.91;43.69;99558.53;4463693;32;33774;-59
2022/07/24 02:18:27;;;;;;;11.18;7.07;;;;;;;29.01;44.09;99565.13;4467942;32;34083;-60
2022/07/24 02:20:55;;;;;;;9.93;7.12;;;;;;;28.99;43.85;99561.78;4469067;32;33950;-59
2022/07/24 02:23:22;;;;;;;10.63;7.15;;;;;;;29.04;43.95;99563.00;4461113;32;33650;-61
2022/07/24 02:25:50;;;;;;;10.75;7.03;;;;;;;29.00;43.75;99563.47;4453597;32;33875;-60
2022/07/24 02:28:18;;;;;;;9.52;6.82;;;;;;;29.01;43.43;99564.31;4462280;32;35139;-60
2022/07/24 02:30:46;;;;;;;9.55;7.43;;;;;;;29.10;42.30;99567.53;4466414;32;33645;-60
2022/07/24 02:33:13;;;;;;;8.27;6.43;;;;;;;29.11;42.57;99560.94;4457353;32;33399;-60
2022/07/24 02:35:41;;;;;;;8.13;6.70;;;;;;;29.10;42.26;99568.38;4454120;32;32506;-58
2022/07/24 02:38:08;;;;;;;8.20;6.43;;;;;;;29.12;41.86;99565.41;4453464;32;35187;-58
2022/07/24 02:40:36;;;;;;;9.18;6.87;;;;;;;29.01;41.51;99554.13;4467670;32;34407;-59
2022/07/24 02:43:03;;;;;;;9.93;6.05;;;;;;;28.87;41.78;99540.81;4468514;32;33278;-60
2022/07/24 02:45:31;;;;;;;9.85;7.20;;;;;;;28.85;42.11;99526.44;4466657;32;32428;-59
2022/07/24 02:47:59;;;;;;;8.70;6.40;;;;;;;28.82;41.82;99522.22;4466735;32;33921;-59
2022/07/24 02:50:30;;;;;;;8.05;6.32;;;;;;;28.87;42.05;99518.78;4469148;32;33628;-60
2022/07/24 02:52:58;;;;;;;8.40;6.68;;;;;;;28.92;42.20;99516.94;4459392;32;34478;-60
2022/07/24 02:55:27;;;;;;;10.18;6.65;;;;;;;28.48;43.15;99502.72;4453467;32;33910;-60
2022/07/24 02:57:56;;;;;;;13.65;7.62;;;;;;;28.83;42.79;99515.66;4453350;32;33148;-61
2022/07/24 03:00:24;;;;;;;8.52;6.50;;;;;;;28.97;41.85;99514.31;4453347;32;33858;-59
2022/07/24 03:02:51;;;;;;;9.45;6.70;;;;;;;28.87;42.28;99514.09;4460799;32;33388;-59
2022/07/24 03:05:19;;;;;;;8.85;6.57;;;;;;;28.50;42.69;99516.22;4455318;32;33593;-60
2022/07/24 03:07:47;;;;;;;9.77;6.68;;;;;;;28.70;42.23;99518.63;4468906;32;35124;-62
2022/07/24 03:10:15;;;;;;;15.90;7.28;;;;;;;28.71;42.02;99523.91;4468838;32;32683;-62
2022/07/24 03:12:43;;;;;;;11.25;6.82;;;;;;;28.61;42.40;99536.59;4466297;32;33604;-59
2022/07/24 03:15:12;;;;;;;10.82;6.85;;;;;;;27.98;43.64;99529.69;4469308;32;32827;-61
2022/07/24 03:17:48;;;;;;;9.68;7.12;;;;;;;28.23;43.33;99533.12;4453818;32;35336;-61
2022/07/24 03:20:16;;;;;;;9.55;6.55;;;;;;;28.24;43.41;99528.47;4456565;32;34759;-59
2022/07/24 03:22:44;;;;;;;8.50;6.47;;;;;;;28.48;42.69;99533.00;4453285;32;33679;-59
2022/07/24 03:25:12;;;;;;;9.48;7.18;;;;;;;27.71;44.35;99520.97;4459917;32;33760;-59
2022/07/24 03:27:41;;;;;;;7.85;5.70;;;;;;;28.10;43.52;99523.16;4462689;32;33758;-59
2022/07/24 03:30:09;;;;;;;8.15;6.12;;;;;;;28.43;42.94;99529.25;4453144;32;33948;-59
2022/07/24 03:32:37;;;;;;;10.30;7.00;;;;;;;28.37;42.87;99510.91;4453297;32;33450;-60
2022/07/24 03:35:05;;;;;;;11.80;7.18;;;;;;;27.77;44.09;99493.41;4453894;32;34036;-61
2022/07/24 03:37:33;;;;;;;8.68;6.68;;;;;;;28.15;43.48;99505.09;4453650;32;34116;-61
2022/07/24 03:40:00;;;;;;;8.98;6.57;;;;;;;28.19;43.09;99512.66;4453200;32;33782;-61
2022/07/24 03:42:28;;;;;;;9.18;6.82;;;;;;;28.01;43.37;99510.81;4466549;32;31968;-61
2022/07/24 03:44:56;;;;;;;9.82;6.60;;;;;;;28.15;43.16;99525.19;4466869;32;34020;-59
2022/07/24 03:47:23;;;;;;;9.93;6.95;;;;;;;27.51;44.56;99533.03;4464099;32;33883;-61
2022/07/24 03:49:51;;;;;;;7.53;5.90;;;;;;;27.80;44.02;99534.19;4467651;32;34867;-59
2022/07/24 03:52:19;;;;;;;11.55;6.45;;;;;;;27.02;45.76;99528.47;4468695;32;33219;-59
2022/07/24 03:54:51;;;;;;;9.90;6.78;;;;;;;27.05;45.65;99528.03;4467676;32;35188;-60
2022/07/24 03:57:19;;;;;;;8.27;6.72;;;;;;;26.61;46.64;99528.03;4468558;32;33874;-61
2022/07/24 03:59:46;;;;;;;10.05;6.87;;;;;;;26.99;45.88;99521.53;4468538;32;32611;-59
2022/07/24 04:02:14;;;;;;;11.55;7.00;;;;;;;27.06;45.76;99524.22;4456053;32;33232;-62
2022/07/24 04:04:42;;;;;;;10.98;6.82;;;;;;;26.64;46.46;99533.06;4465279;32;32573;-58
2022/07/24 04:07:09;;;;;;;8.18;6.30;;;;;;;26.38;47.32;99545.06;4454377;32;33924;-59
2022/07/24 04:09:37;;;;;;;8.32;7.10;;;;;;;26.24;47.72;99546.22;4456602;32;34622;-61
2022/07/24 04:12:05;;;;;;;9.77;7.15;;;;;;;26.08;48.23;99542.09;4468099;32;33284;-60
2022/07/24 04:14:32;;;;;;;9.23;6.78;;;;;;;26.57;46.97;99542.41;4467720;32;34862;-60
2022/07/24 04:17:00;;;;;;;10.82;7.47;;;;;;;26.32;47.82;99540.44;4468230;32;33854;-60
2022/07/24 04:19:28;;;;;;;11.00;7.03;;;;;;;26.48;47.38;99520.75;4467481;32;33917;-62
2022/07/24 04:21:55;;;;;;;12.00;7.97;;;;;;;26.57;47.25;99523.22;4452700;32;33249;-59
2022/07/24 04:24:23;;;;;;;10.60;7.60;;;;;;;26.35;48.00;99523.56;4452475;32;33954;-59
2022/07/24 04:26:51;;;;;;;12.65;7.75;;;;;;;26.62;47.21;99524.22;4457733;32;34079;-61
2022/07/24 04:29:18;;;;;;;13.57;8.18;;;;;;;26.52;47.76;99523.88;4457732;32;34650;-59
2022/07/24 04:31:49;;;;;;;11.68;7.15;;;;;;;26.91;46.86;99530.91;4467774;32;33476;-59
2022/07/24 04:34:17;;;;;;;12.68;7.50;;;;;;;26.73;47.68;99530.88;4465571;32;33708;-61
2022/07/24 04:36:44;;;;;;;9.93;7.37;;;;;;;26.55;47.94;99533.56;4467626;32;32547;-61
2022/07/24 04:39:12;;;;;;;9.48;6.82;;;;;;;26.24;48.69;99548.97;4454478;32;33741;-60
2022/07/24 04:41:40;;;;;;;9.32;7.05;;;;;;;26.73;47.77;99552.00;4454530;32;34342;-60
2022/07/24 04:44:08;;;;;;;11.70;7.85;;;;;;;26.45;48.22;99562.34;4461577;32;34885;-62
2022/07/24 04:46:35;;;;;;;8.55;7.30;;;;;;;26.09;48.98;99565.72;4458635;32;34012;-59
2022/07/24 04:49:03;;;;;;;8.63;6.93;;;;;;;27.15;46.71;99564.91;4456258;32;33709;-59
2022/07/24 04:51:31;;;;;;;9.30;7.10;;;;;;;26.64;48.03;99563.25;4469909;32;32946;-59
2022/07/24 04:53:59;;;;;;;12.15;8.00;;;;;;;27.16;46.81;99583.09;4458227;31;34070;-61
2022/07/24 04:56:31;;;;;;;9.40;6.78;;;;;;;26.49;48.53;99584.72;4465574;32;32571;-59
2022/07/24 04:59:01;;;;;;;10.60;7.45;;;;;;;26.76;47.95;99582.59;4462502;32;32148;-58
2022/07/24 05:01:30;;;;;;;12.18;7.93;;;;;;;26.82;47.87;99589.94;4469575;32;31775;-61
2022/07/24 05:03:58;;;;;;;10.23;7.75;;;;;;;27.26;46.79;99587.25;4469906;32;33611;-59
2022/07/24 05:06:26;;;;;;;10.85;8.02;;;;;;;26.87;47.87;99597.47;4460129;32;35020;-60
2022/07/24 05:08:54;;;;;;;10.98;7.78;;;;;;;27.38;46.74;99602.75;4454793;32;32568;-59
2022/07/24 05:11:21;;;;;;;12.20;7.32;;;;;;;27.49;46.67;99595.63;4454126;32;34569;-59
2022/07/24 05:13:49;;;;;;;8.45;6.22;;;;;;;27.44;46.96;99606.47;4453485;32;33584;-62
2022/07/24 05:16:17;;;;;;;9.52;7.50;;;;;;;27.65;46.62;99610.69;4453821;32;33849;-60
2022/07/24 05:18:45;;;;;;;11.07;7.62;;;;;;;27.96;45.91;99606.97;4452857;32;32795;-60
2022/07/24 05:21:14;;;;;;;10.90;8.43;;;;;;;27.93;46.20;99625.81;4453690;32;34145;-60
2022/07/24 05:23:43;;;;;;;10.57;8.20;;;;;;;27.75;46.69;99619.22;4454310;32;33912;-61
2022/07/24 05:26:10;;;;;;;9.48;7.97;;;;;;;27.85;46.60;99627.81;4454635;32;34906;-59
2022/07/24 05:28:38;;;;;;;10.60;8.65;;;;;;;27.21;47.87;99626.38;4462870;32;33756;-61
2022/07/24 05:31:07;;;;;;;10.00;7.78;;;;;;;26.95;49.01;99638.41;4454718;32;33136;-59
2022/07/24 05:33:35;;;;;;;10.63;8.43;;;;;;;27.40;47.77;99633.56;4454635;32;32597;-60
2022/07/24 05:36:03;;;;;;;11.82;7.62;;;;;;;27.41;47.85;99637.16;4457716;32;33749;-60
2022/07/24 05:38:31;;;;;;;12.65;8.65;;;;;;;27.68;47.02;99631.38;4458014;32;35108;-61
2022/07/24 05:40:59;;;;;;;12.20;9.10;;;;;;;27.40;47.62;99639.06;4458390;32;33743;-59
2022/07/24 05:43:26;;;;;;;12.05;8.13;;;;;;;27.21;48.14;99644.75;4455923;32;33715;-60
2022/07/24 05:45:54;;;;;;;11.95;8.75;;;;;;;27.26;48.32;99647.69;4453319;32;34897;-59
2022/07/24 05:48:22;;;;;;;12.52;9.15;;;;;;;27.51;47.78;99648.50;4453433;32;32635;-60
2022/07/24 05:50:50;;;;;;;13.57;8.65;;;;;;;27.38;48.11;99643.09;4452219;32;33400;-61
2022/07/24 05:53:17;;;;;;;11.95;8.48;;;;;;;27.79;47.46;99636.97;4454739;32;33752;-59
2022/07/24 05:55:45;;;;;;;10.68;8.32;;;;;;;27.68;47.51;99634.13;4453825;32;35378;-60
2022/07/24 05:58:12;;;;;;;15.27;9.32;;;;;;;27.49;48.26;99639.62;4454257;32;35452;-60
2022/07/24 06:00:40;;;;;;;10.25;8.75;;;;;;;27.62;47.74;99644.97;4453709;32;33705;-58
2022/07/24 06:03:08;;;;;;;12.73;9.70;;;;;;;27.83;47.48;99648.34;4454221;32;33836;-59
2022/07/24 06:05:36;;;;;;;12.77;10.02;;;;;;;27.03;48.82;99646.38;4453874;32;32881;-59
2022/07/24 06:08:04;;;;;;;14.38;9.57;;;;;;;27.87;46.92;99646.84;4460052;32;35552;-60
2022/07/24 06:10:33;;;;;;;13.52;9.60;;;;;;;27.29;48.26;99644.50;4457543;32;33455;-59
2022/07/24 06:13:01;;;;;;;11.18;8.73;;;;;;;27.41;47.77;99642.66;4453646;32;33786;-59
2022/07/24 06:15:30;;;;;;;11.73;9.00;;;;;;;27.47;48.23;99650.00;4454045;32;32848;-60
2022/07/24 06:17:57;;;;;;;14.32;10.43;;;;;;;27.80;47.18;99655.19;4462511;32;33908;-59
2022/07/24 06:20:25;;;;;;;11.57;9.98;;;;;;;28.21;46.82;99656.34;4458851;32;34207;-58
2022/07/24 06:22:53;;;;;;;13.23;9.88;;;;;;;28.19;46.37;99661.25;4454061;32;34000;-59
2022/07/24 06:25:21;;;;;;;14.90;9.75;;;;;;;28.13;46.68;99662.19;4454778;32;33615;-59
2022/07/24 06:27:50;;;;;;;11.12;9.57;;;;;;;27.51;47.75;99661.38;4468263;32;32621;-59
2022/07/24 06:30:22;;;;;;;14.18;9.93;;;;;;;28.21;46.58;99672.00;4468817;32;33154;-60
2022/07/24 06:32:53;;;;;;;13.50;9.95;;;;;;;28.24;46.68;99669.62;4469329;32;34921;-59
2022/07/24 06:35:21;;;;;;;13.00;10.10;;;;;;;28.78;45.32;99669.75;4457161;32;33294;-60
2022/07/24 06:37:49;;;;;;;12.37;10.02;;;;;;;28.58;45.56;99675.56;4453162;32;33621;-60
2022/07/24 06:40:18;;;;;;;15.13;10.43;;;;;;;28.77;45.26;99673.59;4454697;32;32406;-58
2022/07/24 06:42:46;;;;;;;12.40;10.00;;;;;;;28.60;45.68;99678.06;4465245;32;33849;-60
2022/07/24 06:45:14;;;;;;;16.23;9.73;;;;;;;28.72;44.81;99679.78;4461945;32;34993;-59
2022/07/24 06:47:42;;;;;;;13.20;9.65;;;;;;;29.27;44.04;99680.66;4453391;32;34756;-59
2022/07/24 06:50:11;;;;;;;11.88;9.63;;;;;;;28.96;45.00;99675.19;4453096;32;33152;-58
2022/07/24 06:52:39;;;;;;;13.95;10.43;;;;;;;29.21;44.10;99677.78;4467771;32;33826;-59
2022/07/24 06:55:07;;;;;;;11.65;10.18;;;;;;;29.09;44.22;99684.34;4466876;32;35208;-60
2022/07/24 06:57:35;;;;;;;12.82;10.40;;;;;;;29.14;44.73;99688.06;4464001;32;34539;-60
2022/07/24 07:00:05;;;;;;;14.00;10.30;;;;;;;28.80;44.71;99689.66;4458373;32;32034;-58
2022/07/24 07:02:33;;;;;;;13.35;10.50;;;;;;;28.59;45.30;99693.75;4468127;32;34388;-60
2022/07/24 07:05:00;;;;;;;12.50;10.45;;;;;;;28.18;46.38;99684.31;4459502;32;33930;-61
2022/07/24 07:07:28;;;;;;;15.45;10.32;;;;;;;28.69;45.53;99682.19;4466756;32;34636;-58
2022/07/24 07:09:56;;;;;;;14.00;11.90;;;;;;;29.00;45.52;99684.69;4460629;32;33312;-61
2022/07/24 07:12:23;;;;;;;13.15;10.15;;;;;;;28.92;44.72;99679.47;4454969;32;34662;-60
2022/07/24 07:14:51;;;;;;;11.40;9.75;;;;;;;29.56;43.03;99685.19;4460802;32;34998;-62
2022/07/24 07:17:19;;;;;;;14.07;10.48;;;;;;;29.58;43.32;99691.31;4461079;32;33732;-60
2022/07/24 07:19:46;;;;;;;13.13;9.73;;;;;;;29.45;42.44;99684.12;4461892;32;33292;-61
2022/07/24 07:22:14;;;;;;;12.63;10.57;;;;;;;29.26;42.59;99690.84;4453121;32;33960;-61
2022/07/24 07:24:42;;;;;;;11.98;9.43;;;;;;;28.78;43.54;99686.28;4452952;32;33846;-61
2022/07/24 07:27:12;;;;;;;11.93;10.73;;;;;;;28.98;43.21;99689.56;4465946;32;32912;-60
2022/07/24 07:29:40;;;;;;;12.43;9.63;;;;;;;28.95;42.39;99698.28;4458383;32;34656;-60
2022/07/24 07:32:08;;;;;;;10.88;9.63;;;;;;;28.99;42.00;99693.19;4436356;32;198974;-59
2022/07/24 07:34:35;;;;;;;13.10;10.57;;;;;;;28.87;42.77;99695.87;4467583;32;33993;-58
2022/07/24 07:37:03;;;;;;;14.18;11.57;;;;;;;28.60;43.58;99698.19;4453197;32;33879;-61
2022/07/24 07:39:30;;;;;;;12.05;10.68;;;;;;;28.66;43.22;99696.41;4461473;32;33362;-63
2022/07/24 07:41:58;;;;;;;12.07;10.55;;;;;;;29.02;43.09;99699.06;4452878;32;35063;-60
2022/07/24 07:44:26;;;;;;;12.98;10.60;;;;;;;29.17;41.78;99682.06;4459227;32;33979;-60
2022/07/24 07:46:54;;;;;;;14.27;9.85;;;;;;;29.01;42.41;99691.03;4468635;32;32573;-59
2022/07/24 07:49:21;;;;;;;11.00;9.73;;;;;;;29.11;42.16;99694.03;4465709;32;33293;-60
2022/07/24 07:51:51;;;;;;;11.70;10.05;;;;;;;29.70;40.55;99692.19;4464851;32;35011;-59
2022/07/24 07:54:19;;;;;;;13.45;10.38;;;;;;;29.51;39.92;99701.66;4455776;32;32999;-60
2022/07/24 07:56:46;;;;;;;11.98;9.80;;;;;;;29.34;40.54;99693.25;4443072;32;35432;-59
2022/07/24 07:59:14;;;;;;;13.45;9.77;;;;;;;29.63;39.96;99694.25;4453974;32;33408;-61
2022/07/24 08:01:42;;;;;;;12.00;9.95;;;;;;;29.76;38.90;99686.78;4462701;32;34034;-59
2022/07/24 08:04:10;;;;;;;11.02;9.57;;;;;;;29.78;39.00;99687.38;4464244;32;33884;-59
2022/07/24 08:06:37;;;;;;;11.43;8.57;;;;;;;29.80;39.09;99691.59;4458709;32;33759;-59
2022/07/24 08:09:06;;;;;;;11.23;9.52;;;;;;;29.54;38.32;99695.66;4453921;32;33401;-59
2022/07/24 08:11:36;;;;;;;11.32;10.13;;;;;;;29.66;38.94;99690.13;4450846;32;34613;-59
2022/07/24 08:14:04;;;;;;;13.88;10.55;;;;;;;30.17;38.48;99688.50;4451531;32;34133;-59
2022/07/24 08:16:31;;;;;;;11.80;10.05;;;;;;;29.71;39.44;99682.81;4438680;32;33307;-62
2022/07/24 08:18:59;;;;;;;12.32;9.23;;;;;;;29.77;38.61;99696.75;4464158;32;34074;-59
2022/07/24 08:21:28;;;;;;;13.57;9.88;;;;;;;29.83;38.83;99693.84;4460358;32;34224;-58
2022/07/24 08:23:55;;;;;;;10.20;9.07;;;;;;;29.05;40.00;99696.91;4453689;32;35235;-58
2022/07/24 08:26:23;;;;;;;12.10;9.68;;;;;;;29.19;40.26;99693.72;4458153;32;33809;-60
2022/07/24 08:28:51;;;;;;;11.75;9.52;;;;;;;29.20;39.95;99694.53;4457284;32;33215;-59
2022/07/24 08:31:18;;;;;;;12.65;10.38;;;;;;;29.69;39.28;99697.94;4457618;32;33376;-59
2022/07/24 08:33:46;;;;;;;11.73;9.23;;;;;;;29.46;39.63;99699.59;4455152;32;33541;-58
2022/07/24 08:36:14;;;;;;;11.00;9.52;;;;;;;29.69;39.42;99708.97;4453313;32;34738;-58
2022/07/24 08:38:41;;;;;;;11.43;10.20;;;;;;;29.32;40.16;99703.66;4461847;32;33460;-58
2022/07/24 08:41:09;;;;;;;11.93;8.73;;;;;;;29.30;39.21;99699.47;4451503;32;34038;-62
2022/07/24 08:43:37;;;;;;;10.05;8.95;;;;;;;29.57;38.64;99717.22;4438510;32;34131;-61
2022/07/24 08:46:08;;;;;;;12.15;9.65;;;;;;;29.15;38.68;99708.19;4458889;32;33790;-60
2022/07/24 08:48:44;;;;;;;10.38;8.70;;;;;;;29.76;38.20;99711.59;4422872;32;31797;-61
2022/07/24 08:51:13;;;;;;;15.15;8.73;;;;;;;29.56;38.44;99717.47;4461701;32;34006;-59
2022/07/24 08:53:42;;;;;;;12.37;9.60;;;;;;;29.39;38.58;99706.31;4457422;32;34203;-59
2022/07/24 08:56:10;;;;;;;11.35;9.20;;;;;;;29.80;37.65;99715.56;4452124;32;34175;-58
2022/07/24 08:58:39;;;;;;;11.48;8.50;;;;;;;29.60;37.81;99704.84;4456813;32;32283;-61
2022/07/24 09:01:08;;;;;;;10.52;8.95;;;;;;;29.78;37.66;99710.28;4465726;32;34069;-61
2022/07/24 09:03:41;;;;;;;10.82;8.60;;;;;;;29.57;37.54;99710.87;4460924;32;34137;-60
2022/07/24 09:06:10;;;;;;;10.38;8.75;;;;;;;30.10;36.93;99716.22;4451568;32;34045;-60
2022/07/24 09:08:39;;;;;;;10.55;8.50;;;;;;;29.87;36.37;99716.28;4448314;32;32986;-60
2022/07/24 09:11:09;;;;;;;13.15;10.10;;;;;;;29.57;37.43;99716.41;4440018;32;33662;-61
2022/07/24 09:16:24;;;;;;;12.18;8.40;;;;;;;30.10;37.53;99720.91;4455984;32;32419;-59
2022/07/24 09:19:22;;;;;;;11.95;9.13;;;;;;;30.33;35.70;99703.47;4458305;32;33257;-59
2022/07/24 09:21:52;;;;;;;10.73;9.10;;;;;;;30.04;36.32;99719.13;4434617;32;33435;-59
2022/07/24 09:24:21;;;;;;;12.45;8.90;;;;;;;29.92;36.35;99724.66;4451401;32;34327;-59
2022/07/24 09:26:51;;;;;;;11.98;8.27;;;;;;;30.09;35.69;99722.00;4460705;32;34004;-58
2022/07/24 09:29:20;;;;;;;9.60;8.27;;;;;;;30.21;34.58;99727.50;4467771;32;32545;-60
2022/07/24 09:31:50;;;;;;;10.38;7.75;;;;;;;30.57;34.21;99726.34;4446648;32;32034;-61
2022/07/24 09:34:18;;;;;;;8.88;7.15;;;;;;;30.45;34.05;99722.78;4465005;32;34264;-61
2022/07/24 09:37:06;;;;;;;9.45;7.87;;;;;;;30.77;33.06;99729.50;4460054;32;33817;-60
2022/07/24 09:39:36;;;;;;;11.38;7.80;;;;;;;30.74;33.16;99734.66;4451607;32;34510;-61
2022/07/24 09:42:06;;;;;;;11.25;8.25;;;;;;;30.64;33.35;99718.75;4454795;32;32984;-59
2022/07/24 09:44:34;;;;;;;11.30;8.38;;;;;;;30.62;34.18;99724.50;4463326;32;35033;-60
2022/07/24 09:47:03;;;;;;;9.15;8.02;;;;;;;31.28;33.76;99733.19;4452153;32;35185;-59
2022/07/24 09:49:32;;;;;;;10.27;8.23;;;;;;;30.88;34.52;99736.06;4455820;32;33310;-60
2022/07/24 09:52:19;;;;;;;9.65;7.30;;;;;;;31.07;33.67;99729.22;4453446;32;33821;-59
2022/07/24 09:54:50;;;;;;;10.63;7.60;;;;;;;30.69;32.50;99729.91;4459910;32;33948;-61
2022/07/24 09:57:27;;;;;;;9.73;7.45;;;;;;;30.80;31.66;99737.31;4453222;32;34948;-59
2022/07/24 10:00:04;;;;;;;9.95;7.40;;;;;;;30.48;32.68;99730.56;4467258;32;34374;-61
2022/07/24 10:02:33;;;;;;;9.80;7.18;;;;;;;30.17;32.60;99732.66;4460552;32;33683;-61
2022/07/24 10:05:03;;;;;;;9.55;7.28;;;;;;;30.24;32.66;99729.78;4453642;32;35307;-61
2022/07/24 10:07:31;;;;;;;17.50;6.93;;;;;;;29.96;32.96;99725.03;4465797;32;33910;-59
2022/07/24 10:09:59;;;;;;;9.48;7.75;;;;;;;30.31;32.69;99736.03;4456652;32;34580;-59
2022/07/24 10:12:30;;;;;;;11.05;7.57;;;;;;;30.98;31.96;99735.41;4464815;32;33859;-61
2022/07/24 10:15:00;;;;;;;12.80;8.10;;;;;;;31.50;31.85;99729.72;4461741;32;34156;-60
2022/07/24 10:18:02;;;;;;;8.90;7.82;;;;;;;31.25;32.44;99728.16;4455878;32;35627;-62
2022/07/24 10:20:41;;;;;;;8.38;6.72;;;;;;;31.22;31.32;99717.59;4449811;32;33100;-61
2022/07/24 10:23:20;;;;;;;7.65;6.80;;;;;;;31.15;30.97;99728.00;4459407;32;32373;-61
2022/07/24 10:25:54;;;;;;;7.90;6.82;;;;;;;31.24;30.88;99725.66;4441333;32;34138;-58
2022/07/24 10:28:33;;;;;;;8.45;6.87;;;;;;;30.76;30.77;99730.56;4457176;32;33774;-60
2022/07/24 10:31:02;;;;;;;9.10;6.22;;;;;;;31.21;30.37;99727.00;4461800;32;34639;-60
2022/07/24 10:33:30;;;;;;;8.00;6.80;;;;;;;30.73;31.18;99727.47;4431779;32;32001;-61
2022/07/24 10:36:00;;;;;;;8.38;6.32;;;;;;;31.23;30.24;99738.62;4463758;32;34637;-59
2022/07/24 10:38:34;;;;;;;8.63;6.05;;;;;;;31.17;30.35;99730.50;4442837;32;33254;-59
2022/07/24 10:41:07;;;;;;;10.70;6.90;;;;;;;31.38;29.92;99728.94;4445387;32;33537;-61
2022/07/24 10:43:35;;;;;;;8.65;6.85;;;;;;;31.24;29.88;99728.44;4450697;32;33897;-61
2022/07/24 10:46:03;;;;;;;8.10;6.15;;;;;;;31.22;30.59;99727.81;4455342;32;34030;-59
2022/07/24 10:48:32;;;;;;;7.70;6.47;;;;;;;31.40;29.71;99722.09;4440743;32;32454;-60
2022/07/24 10:51:05;;;;;;;8.88;6.00;;;;;;;31.24;29.43;99731.19;4462446;32;33620;-62
2022/07/24 10:53:36;;;;;;;10.85;7.53;;;;;;;30.53;29.89;99726.00;4447055;32;32294;-60
2022/07/24 10:56:19;;;;;;;8.68;6.82;;;;;;;31.41;29.29;99722.91;4461030;32;33977;-61
2022/07/24 10:58:52;;;;;;;7.82;6.00;;;;;;;31.31;29.22;99720.78;4457254;32;34957;-59
2022/07/24 11:01:29;;;;;;;8.55;5.78;;;;;;;31.25;28.89;99722.62;4464481;32;34161;-59
2022/07/24 11:03:58;;;;;;;9.00;6.72;;;;;;;31.73;28.87;99712.91;4450848;32;33879;-59
2022/07/24 11:06:40;;;;;;;10.07;6.80;;;;;;;31.44;29.33;99706.66;4452271;32;35310;-61
2022/07/24 11:09:08;;;;;;;9.50;5.82;;;;;;;31.71;28.89;99703.19;4455541;32;33544;-62
2022/07/24 11:11:41;;;;;;;7.72;5.62;;;;;;;31.54;27.05;99708.75;4451948;32;33193;-59
2022/07/24 11:14:10;;;;;;;7.28;5.40;;;;;;;31.14;27.76;99715.25;4457405;32;33363;-60
2022/07/24 11:16:38;;;;;;;7.53;5.75;;;;;;;31.45;27.73;99705.56;4455451;32;34454;-59
2022/07/24 11:19:06;;;;;;;8.50;5.85;;;;;;;31.24;28.57;99718.19;4453364;32;33617;-61
2022/07/24 11:21:43;;;;;;;7.57;6.50;;;;;;;31.52;28.65;99706.22;4463163;32;33430;-63
2022/07/24 11:24:14;;;;;;;7.15;5.40;;;;;;;31.51;27.47;99696.25;4456672;32;33509;-59
2022/07/24 11:27:17;;;;;;;8.60;6.07;;;;;;;31.75;28.14;99694.13;4438248;32;34501;-59
2022/07/24 11:29:45;;;;;;;7.82;5.20;;;;;;;32.13;26.58;99691.59;4456567;32;34932;-62
2022/07/24 11:32:17;;;;;;;6.95;4.70;;;;;;;32.25;25.34;99693.12;4451902;32;34065;-60
2022/07/24 11:34:49;;;;;;;8.30;5.30;;;;;;;32.76;24.74;99684.59;4437457;32;32743;-62
2022/07/24 11:37:18;;;;;;;6.45;4.93;;;;;;;32.22;25.98;99688.13;4467254;32;33788;-59